FNG200 EFHK-EFHK
Flight info
| Callsign | FNG200 |
|---|---|
| Flight time | 0h 3m |
| Altitude | 1000 |
| Route | DCT |
| Aircraft | AS32/M-SBDFGY/SB1 |
Departure
| Time | 2026-04-24 17:02 |
|---|---|
| Airport | Helsinki Vantaa Airport (EFHK) |
Arrival
| Time | 2026-04-24 17:06 |
|---|---|
| Airport | Helsinki Vantaa Airport (EFHK) |
| Time | Latitude | Longitude | Altitude | Speed | Heading |
|---|---|---|---|---|---|
| 2026-04-24 16:57 | 60.31239 | 24.98973 | 184 ft | 0 kts | 63° |
| 2026-04-24 16:59 | 60.31238 | 24.98980 | 185 ft | 1 kts | 324° |
| 2026-04-24 16:59 | 60.31243 | 24.98958 | 186 ft | 4 kts | 242° |
| 2026-04-24 16:59 | 60.31209 | 24.98870 | 190 ft | 3 kts | 264° |
| 2026-04-24 17:00 | 60.31206 | 24.98862 | 185 ft | 0 kts | 321° |
| 2026-04-24 17:01 | 60.31215 | 24.98809 | 192 ft | 3 kts | 313° |
| 2026-04-24 17:01 | 60.31207 | 24.98775 | 192 ft | 3 kts | 335° |
| 2026-04-24 17:02 | 60.31452 | 24.98133 | 607 ft | 72 kts | 302° |
| 2026-04-24 17:02 | 60.31050 | 24.97014 | 695 ft | 122 kts | 241° |
| 2026-04-24 17:02 | 60.30464 | 24.95505 | 752 ft | 146 kts | 242° |
| 2026-04-24 17:02 | 60.29929 | 24.93729 | 926 ft | 150 kts | 251° |
| 2026-04-24 17:03 | 60.29155 | 24.89727 | 1118 ft | 165 kts | 258° |
| 2026-04-24 17:03 | 60.28799 | 24.87460 | 887 ft | 165 kts | 247° |
| 2026-04-24 17:03 | 60.28356 | 24.85425 | 863 ft | 154 kts | 246° |
| 2026-04-24 17:04 | 60.27926 | 24.83501 | 815 ft | 151 kts | 247° |
| 2026-04-24 17:04 | 60.26979 | 24.79835 | 779 ft | 144 kts | 244° |
| 2026-04-24 17:04 | 60.26518 | 24.78086 | 765 ft | 138 kts | 248° |
| 2026-04-24 17:05 | 60.26154 | 24.76322 | 751 ft | 136 kts | 252° |
| 2026-04-24 17:05 | 60.25795 | 24.74565 | 736 ft | 137 kts | 251° |
| 2026-04-24 17:05 | 60.25114 | 24.70995 | 782 ft | 139 kts | 255° |
| 2026-04-24 17:06 | 60.24802 | 24.69264 | 645 ft | 123 kts | 247° |
| 2026-04-24 17:06 | 60.24581 | 24.66862 | 549 ft | 45 kts | 245° |
| 2026-04-24 17:06 | 60.24532 | 24.66558 | 221 ft | 24 kts | 16° |
| 2026-04-24 17:07 | 60.24523 | 24.66597 | 533 ft | 19 kts | 2° |
| 2026-04-24 17:07 | 60.24585 | 24.66931 | 404 ft | 26 kts | 86° |
| 2026-04-24 17:07 | 60.24675 | 24.67494 | 194 ft | 15 kts | 96° |
| 2026-04-24 17:08 | 60.24591 | 24.67541 | 255 ft | 9 kts | 2° |
| 2026-04-24 17:08 | 60.24663 | 24.67531 | 278 ft | 10 kts | 310° |
| 2026-04-24 17:08 | 60.24763 | 24.67347 | 282 ft | 44 kts | 341° |
| 2026-04-24 17:09 | 60.24831 | 24.69043 | 477 ft | 147 kts | 157° |
| 2026-04-24 17:09 | 60.23251 | 24.67175 | 682 ft | 117 kts | 228° |
| 2026-04-24 17:10 | 60.22601 | 24.66579 | 667 ft | 97 kts | 152° |
| 2026-04-24 17:10 | 60.22012 | 24.68586 | 117 ft | 8 kts | 2° |
| 2026-04-24 17:11 | 60.22069 | 24.68591 | 92 ft | 0 kts | 74° |
| 2026-04-24 17:12 | 60.22553 | 24.69071 | 714 ft | 85 kts | 67° |